Knoxville, IL (61448)

12:57 PM CDT on August 04, 2015 (GMT -0500)
KILKNOXV2 | | Change Station
CLOSE
Current Station
Personal Weather Station
Location: Knoxville, IL
Elevation: 773 ft
Nearby Weather Stations

Elev 773 ft 40.91 °N, 90.29 °W | Updated 12 minutes ago

Partly Cloudy
Partly Cloudy
78.7 °F
Feels Like 80 °F
N
5.0
Wind Variable Wind from West
Gusts 7.0 mph

Today
High -- | Low -- °F
--% Chance of Precip.
Yesterday
High -- | Low -- °F
Precip. -- in
6:00 AM 8:13 PM
Waning Gibbous, 76% visible
Pressure 30.07 in
Visibility 10.0 miles
Clouds Scattered Clouds 11000 ft
Heat Index 80 °F
Dew Point 64 °F
Humidity 60%
Rainfall 0.00 in
Snow Depth Not available.
UV 9 out of 12
Pollen 6.60 out of 12
Air Quality Not available.
Flu Activity Not available.
METAR KMQB 041735Z AUTO 24004KT 10SM SCT110 25/15 A3007 RMK AO2 LTG DSNT SW T02500154

More Conditions Fewer Conditions

Pressure 30.07 in
Visibility 10.0 miles
Clouds Scattered Clouds 11000 ft
Heat Index 80 °F
Dew Point 64 °F
Humidity 60%
Rainfall 0.00 in
Snow Depth Not available.
UV 9 out of 12
Pollen 6.60 out of 12
Air Quality Not available.
Flu Activity Not available.
METAR KMQB 041735Z AUTO 24004KT 10SM SCT110 25/15 A3007 RMK AO2 LTG DSNT SW T02500154

More Conditions Fewer Conditions

10-Day Weather Forecast

×

Almanac

Astronomy

Aug. 04, 2015 Rise Set
Actual Time
Civil Twilight
Nautical Twilight
Astronomical Twilight
Moon
Length of Visible Light
Length of Day
Tomorrow will be .
, % of the Moon is Illuminated

Today's Extremes

State Highs State Lows

Community

WunderPhotos

Upload Photos

1,843,927 photos uploaded!

WunderBlogs® & News

Nearby

Air Quality

  Air Quality AQ Index Pollutant
Not available.

Snow Depth

Station Depth Elevation

Earthquake Activity

City Distance Mag. Time & Date
Minimum magnitude displayed is 2.5.

Coastal Water Temperatures

Place Temperature

Stations

Nearby Weather Stations

Station Location Temp. Windchill Dew Point Humidity Wind Precip. Elev Updated Type